createdAt,value
2019-04-04T00:00:05.347Z,14.90
2019-04-04T00:01:05.356Z,16.50
2019-04-04T00:02:05.371Z,15.90
2019-04-04T00:03:05.389Z,16.90
2019-04-04T00:04:05.407Z,15.40
2019-04-04T00:05:05.419Z,16.60
2019-04-04T00:06:05.436Z,14.70
2019-04-04T00:07:05.452Z,15.30
2019-04-04T00:08:05.467Z,15.50
2019-04-04T00:09:05.483Z,15.50
2019-04-04T00:10:05.499Z,15.70
2019-04-04T00:11:06.067Z,16.10
2019-04-04T00:12:06.143Z,16.70
2019-04-04T00:13:05.547Z,16.00
2019-04-04T00:14:05.565Z,15.60
2019-04-04T00:15:05.579Z,17.10
2019-04-04T00:16:05.595Z,18.50
2019-04-04T00:17:05.613Z,16.70
2019-04-04T00:18:05.629Z,17.20
2019-04-04T00:19:05.645Z,17.00
2019-04-04T00:20:05.657Z,19.70
2019-04-04T00:21:05.682Z,17.80
2019-04-04T00:22:05.700Z,18.60
2019-04-04T00:23:06.926Z,18.40
2019-04-04T00:24:07.107Z,18.40
2019-04-04T00:25:05.738Z,19.00
2019-04-04T00:26:05.756Z,18.60
2019-04-04T00:27:05.777Z,18.70
2019-04-04T00:28:05.793Z,19.30
2019-04-04T00:29:05.809Z,18.30
2019-04-04T00:30:05.818Z,19.90
2019-04-04T00:31:05.833Z,17.30
2019-04-04T00:32:05.851Z,18.60
2019-04-04T00:33:05.865Z,18.70
2019-04-04T00:34:05.882Z,19.40
2019-04-04T00:35:05.899Z,19.70
2019-04-04T00:36:05.914Z,21.00
2019-04-04T00:37:05.930Z,21.00
2019-04-04T00:38:06.962Z,20.80
2019-04-04T00:39:09.078Z,21.80
2019-04-04T00:40:05.978Z,21.20
2019-04-04T00:41:05.993Z,20.40
2019-04-04T00:42:06.010Z,20.70
2019-04-04T00:43:06.029Z,23.90
2019-04-04T00:44:06.039Z,20.00
2019-04-04T00:45:06.054Z,21.40
2019-04-04T00:46:06.070Z,22.00
2019-04-04T00:47:06.090Z,20.80
2019-04-04T00:48:06.107Z,23.50
2019-04-04T00:49:06.124Z,21.60
2019-04-04T00:50:06.744Z,21.50
2019-04-04T00:51:07.952Z,23.20
2019-04-04T00:52:06.167Z,24.00
2019-04-04T00:53:06.183Z,21.80
2019-04-04T00:54:06.200Z,22.80
2019-04-04T00:55:06.219Z,21.90
2019-04-04T00:56:06.229Z,22.00
2019-04-04T00:57:06.244Z,21.40
2019-04-04T00:58:06.262Z,20.10
2019-04-04T00:59:06.278Z,20.20
2019-04-04T01:00:06.290Z,21.50
2019-04-04T01:01:06.311Z,22.90
2019-04-04T01:02:06.327Z,21.50
2019-04-04T01:03:06.338Z,22.50
2019-04-04T01:04:06.360Z,22.80
2019-04-04T01:05:06.369Z,23.60
2019-04-04T01:06:06.385Z,20.80
2019-04-04T01:07:06.418Z,21.90
2019-04-04T01:08:07.030Z,22.00
2019-04-04T01:09:11.357Z,22.40
2019-04-04T01:10:06.451Z,19.70
2019-04-04T01:11:06.481Z,20.80
2019-04-04T01:12:06.479Z,20.70
2019-04-04T01:13:06.496Z,19.80
2019-04-04T01:14:06.519Z,20.70
2019-04-04T01:15:06.529Z,19.60
2019-04-04T01:16:06.544Z,20.00
2019-04-04T01:17:06.559Z,19.90
2019-04-04T01:18:06.817Z,20.70
2019-04-04T01:19:09.603Z,21.30
2019-04-04T01:20:06.609Z,18.60
2019-04-04T01:21:06.623Z,17.70
2019-04-04T01:22:06.648Z,18.70
2019-04-04T01:23:06.655Z,18.10
2019-04-04T01:24:06.679Z,16.70
2019-04-04T01:25:06.689Z,19.90
2019-04-04T01:26:06.704Z,18.10
2019-04-04T01:27:06.966Z,17.50
2019-04-04T01:28:08.131Z,17.50
2019-04-04T01:29:10.060Z,16.50
2019-04-04T01:30:06.857Z,17.50
2019-04-04T01:31:06.795Z,18.00
2019-04-04T01:32:06.798Z,20.50
2019-04-04T01:33:06.815Z,17.30
2019-04-04T01:34:06.830Z,18.20
2019-04-04T01:35:06.849Z,15.90
2019-04-04T01:36:06.864Z,17.00
2019-04-04T01:37:06.886Z,18.20
2019-04-04T01:38:06.891Z,17.30
2019-04-04T01:39:06.919Z,18.40
2019-04-04T01:40:06.951Z,19.40
2019-04-04T01:41:06.962Z,16.40
2019-04-04T01:42:07.810Z,16.50
2019-04-04T01:43:08.826Z,17.50
2019-04-04T01:44:06.989Z,18.10
2019-04-04T01:45:07.003Z,19.10
2019-04-04T01:46:07.021Z,17.80
2019-04-04T01:47:07.035Z,16.90
2019-04-04T01:48:07.052Z,17.40
2019-04-04T01:49:07.068Z,16.60
2019-04-04T01:50:07.082Z,16.80
2019-04-04T01:51:07.889Z,16.10
2019-04-04T01:52:07.122Z,17.20
2019-04-04T01:53:07.136Z,16.60
2019-04-04T01:54:07.147Z,16.90
2019-04-04T01:55:07.174Z,17.00
2019-04-04T01:56:07.202Z,17.10
2019-04-04T01:57:08.124Z,15.80
2019-04-04T01:58:07.982Z,16.60
2019-04-04T01:59:07.227Z,16.30
2019-04-04T02:00:07.239Z,15.20
2019-04-04T02:01:07.307Z,17.00
2019-04-04T02:02:07.272Z,15.80
2019-04-04T02:03:07.298Z,14.60
2019-04-04T02:04:07.305Z,15.30
2019-04-04T02:05:07.322Z,15.80
2019-04-04T02:06:07.358Z,17.00
2019-04-04T02:07:07.354Z,16.10
2019-04-04T02:08:07.374Z,15.60
2019-04-04T02:09:07.382Z,15.50
2019-04-04T02:10:07.426Z,17.30
2019-04-04T02:11:07.417Z,16.90
2019-04-04T02:12:07.966Z,17.50
2019-04-04T02:13:09.500Z,17.50
2019-04-04T02:14:07.462Z,16.60
2019-04-04T02:15:07.480Z,17.10
2019-04-04T02:16:07.493Z,15.70
2019-04-04T02:17:07.510Z,19.80
2019-04-04T02:18:07.524Z,16.50
2019-04-04T02:19:07.549Z,16.30
2019-04-04T02:20:07.556Z,15.90
2019-04-04T02:21:07.579Z,17.00
2019-04-04T02:22:07.590Z,16.10
2019-04-04T02:23:07.603Z,17.50
2019-04-04T02:24:07.620Z,14.30
2019-04-04T02:25:07.636Z,16.90
2019-04-04T02:26:07.652Z,16.70
2019-04-04T02:27:07.737Z,14.90
2019-04-04T02:28:08.886Z,16.10
2019-04-04T02:29:10.703Z,15.20
2019-04-04T02:30:07.714Z,16.10
2019-04-04T02:31:07.731Z,17.20
2019-04-04T02:32:07.747Z,16.30
2019-04-04T02:33:07.759Z,17.20
2019-04-04T02:34:07.775Z,18.10
2019-04-04T02:35:10.568Z,16.90
2019-04-04T02:36:07.808Z,17.30
2019-04-04T02:37:07.828Z,17.50
2019-04-04T02:38:07.838Z,19.90
2019-04-04T02:39:07.858Z,18.90
2019-04-04T02:40:08.891Z,17.90
2019-04-04T02:41:07.888Z,16.30
2019-04-04T02:42:07.899Z,19.50
2019-04-04T02:43:07.931Z,17.00
2019-04-04T02:44:07.935Z,19.00
2019-04-04T02:45:07.989Z,18.40
2019-04-04T02:46:11.073Z,18.10
2019-04-04T02:47:07.980Z,17.40
2019-04-04T02:48:08.006Z,16.80
2019-04-04T02:49:08.009Z,17.30
2019-04-04T02:50:08.027Z,17.70
2019-04-04T02:51:08.380Z,17.30
2019-04-04T02:52:08.061Z,17.90
2019-04-04T02:53:08.077Z,22.10
2019-04-04T02:54:08.097Z,16.60
2019-04-04T02:55:08.105Z,18.40
2019-04-04T02:56:08.121Z,19.20
2019-04-04T02:57:09.171Z,18.30
2019-04-04T02:58:08.155Z,18.80
2019-04-04T02:59:08.167Z,17.90
2019-04-04T03:00:08.180Z,18.20
2019-04-04T03:01:08.195Z,18.10
2019-04-04T03:02:08.210Z,21.10
2019-04-04T03:03:09.364Z,20.50
2019-04-04T03:04:08.240Z,16.50
2019-04-04T03:05:08.256Z,16.10
2019-04-04T03:06:08.272Z,17.30
2019-04-04T03:07:08.289Z,16.90
2019-04-04T03:08:08.314Z,17.90
2019-04-04T03:09:09.959Z,19.30
2019-04-04T03:10:08.337Z,19.00
2019-04-04T03:11:08.347Z,18.30
2019-04-04T03:12:08.367Z,17.20
2019-04-04T03:13:08.384Z,18.30
2019-04-04T03:14:08.396Z,19.70
2019-04-04T03:15:09.243Z,20.10
2019-04-04T03:16:08.424Z,17.20
2019-04-04T03:17:08.442Z,18.80
2019-04-04T03:18:08.468Z,18.30
2019-04-04T03:19:10.940Z,20.60
2019-04-04T03:20:08.495Z,19.50
2019-04-04T03:21:08.502Z,18.30
2019-04-04T03:22:08.517Z,20.20
2019-04-04T03:23:08.536Z,18.70
2019-04-04T03:24:08.557Z,19.90
2019-04-04T03:25:08.563Z,18.40
2019-04-04T03:26:08.578Z,19.50
2019-04-04T03:27:08.602Z,21.20
2019-04-04T03:28:08.627Z,18.80
2019-04-04T03:29:10.649Z,20.90
2019-04-04T03:30:13.651Z,19.50
2019-04-04T03:31:08.657Z,18.70
2019-04-04T03:32:13.146Z,17.90
2019-04-04T03:33:08.690Z,19.10
2019-04-04T03:34:11.883Z,21.70
2019-04-04T03:35:08.734Z,20.50
2019-04-04T03:36:08.822Z,19.80
2019-04-04T03:37:12.178Z,20.20
2019-04-04T03:38:13.018Z,20.80
2019-04-04T03:39:08.813Z,22.00
2019-04-04T03:40:08.799Z,20.90
2019-04-04T03:41:08.811Z,20.30
2019-04-04T03:42:08.824Z,19.90
2019-04-04T03:43:08.841Z,19.60
2019-04-04T03:44:08.851Z,19.40
2019-04-04T03:45:08.871Z,17.00
2019-04-04T03:46:08.887Z,21.00
2019-04-04T03:47:10.407Z,19.30
2019-04-04T03:48:08.914Z,18.60
2019-04-04T03:49:08.928Z,19.20
2019-04-04T03:50:08.949Z,20.10
2019-04-04T03:51:08.967Z,22.10
2019-04-04T03:52:11.185Z,19.60
2019-04-04T03:53:08.990Z,18.70
2019-04-04T03:54:09.005Z,20.80
2019-04-04T03:55:09.026Z,19.60
2019-04-04T03:56:09.036Z,19.70
2019-04-04T03:57:12.220Z,20.70
2019-04-04T03:58:09.065Z,17.90
2019-04-04T03:59:09.158Z,18.60
2019-04-04T04:00:09.099Z,19.10
2019-04-04T04:01:12.041Z,18.30
2019-04-04T04:02:09.127Z,21.30
2019-04-04T04:03:09.144Z,21.00
2019-04-04T04:04:09.157Z,22.10
2019-04-04T04:05:09.182Z,19.20
2019-04-04T04:06:10.054Z,21.50
2019-04-04T04:07:09.202Z,18.60
2019-04-04T04:08:09.221Z,20.00
2019-04-04T04:09:09.235Z,23.00
2019-04-04T04:10:09.258Z,21.30
2019-04-04T04:11:09.267Z,22.10
2019-04-04T04:12:11.222Z,20.30
2019-04-04T04:13:09.298Z,19.60
2019-04-04T04:14:09.312Z,21.20
2019-04-04T04:15:09.327Z,19.60
2019-04-04T04:16:09.339Z,20.00
2019-04-04T04:17:11.647Z,20.10
2019-04-04T04:18:09.373Z,19.70
2019-04-04T04:19:09.392Z,22.00
2019-04-04T04:20:09.407Z,22.10
2019-04-04T04:21:10.941Z,20.10
2019-04-04T04:22:12.761Z,20.80
2019-04-04T04:23:09.446Z,20.70
2019-04-04T04:24:09.462Z,21.30
2019-04-04T04:25:09.481Z,19.90
2019-04-04T04:26:09.798Z,19.50
2019-04-04T04:27:14.369Z,19.70
2019-04-04T04:28:09.526Z,18.20
2019-04-04T04:29:09.539Z,19.70
2019-04-04T04:30:09.569Z,21.20
2019-04-04T04:31:14.305Z,22.20
2019-04-04T04:32:09.615Z,20.10
2019-04-04T04:33:09.600Z,20.40
2019-04-04T04:34:09.615Z,21.10
2019-04-04T04:35:09.635Z,19.60
2019-04-04T04:36:10.247Z,19.20
2019-04-04T04:37:09.662Z,19.50
2019-04-04T04:38:09.690Z,21.10
2019-04-04T04:39:09.691Z,19.70
2019-04-04T04:40:13.953Z,23.50
2019-04-04T04:41:09.723Z,19.50
2019-04-04T04:42:09.740Z,20.10
2019-04-04T04:43:09.750Z,22.10
2019-04-04T04:44:09.775Z,21.00
2019-04-04T04:45:12.120Z,21.90
2019-04-04T04:46:09.898Z,24.30
2019-04-04T04:47:09.818Z,21.20
2019-04-04T04:48:09.879Z,24.10
2019-04-04T04:49:09.843Z,22.70
2019-04-04T04:50:10.050Z,22.80
2019-04-04T04:51:12.070Z,22.60
2019-04-04T04:52:09.889Z,23.20
2019-04-04T04:53:09.914Z,22.80
2019-04-04T04:54:09.921Z,22.90
2019-04-04T04:55:12.027Z,20.80
2019-04-04T04:56:09.951Z,25.00
2019-04-04T04:57:17.515Z,22.90
2019-04-04T04:58:11.070Z,27.50
2019-04-04T04:59:12.874Z,25.40
2019-04-04T05:00:10.020Z,25.60
2019-04-04T05:01:10.027Z,27.40
2019-04-04T05:02:10.040Z,24.40
2019-04-04T05:03:10.057Z,28.80
2019-04-04T05:04:10.072Z,29.60
2019-04-04T05:05:10.085Z,28.50
2019-04-04T05:06:10.110Z,37.00
2019-04-04T05:07:10.124Z,31.10
2019-04-04T05:08:10.651Z,32.80
2019-04-04T05:09:10.147Z,31.00
2019-04-04T05:10:10.170Z,28.50
2019-04-04T05:11:10.179Z,28.50
2019-04-04T05:12:10.194Z,29.70
2019-04-04T05:13:10.252Z,31.20
2019-04-04T05:14:10.228Z,24.60
2019-04-04T05:15:10.244Z,27.80
2019-04-04T05:16:10.252Z,26.30
2019-04-04T05:17:10.728Z,29.00
2019-04-04T05:18:11.927Z,27.70
2019-04-04T05:19:10.301Z,31.30
2019-04-04T05:20:10.322Z,33.40
2019-04-04T05:21:10.329Z,24.90
2019-04-04T05:22:10.354Z,31.20
2019-04-04T05:23:11.238Z,27.70
2019-04-04T05:24:10.381Z,26.30
2019-04-04T05:25:10.410Z,29.40
2019-04-04T05:26:10.410Z,31.30
2019-04-04T05:27:10.441Z,33.00
2019-04-04T05:28:10.893Z,31.80
2019-04-04T05:29:13.275Z,30.50
2019-04-04T05:30:10.470Z,30.10
2019-04-04T05:31:10.498Z,34.70
2019-04-04T05:32:10.499Z,31.00
2019-04-04T05:33:10.515Z,29.00
2019-04-04T05:34:10.528Z,32.40
2019-04-04T05:35:10.555Z,29.70
2019-04-04T05:36:10.561Z,26.70
2019-04-04T05:37:10.573Z,29.00
2019-04-04T05:38:12.427Z,28.70
2019-04-04T05:39:10.610Z,26.00
2019-04-04T05:40:10.620Z,23.00
2019-04-04T05:41:10.644Z,25.90
2019-04-04T05:42:10.661Z,23.90
2019-04-04T05:43:10.673Z,25.00
2019-04-04T05:44:10.683Z,28.00
2019-04-04T05:45:13.957Z,25.70
2019-04-04T05:46:10.713Z,28.00
2019-04-04T05:47:10.733Z,22.60
2019-04-04T05:48:10.746Z,25.90
2019-04-04T05:49:10.777Z,23.80
2019-04-04T05:50:11.314Z,22.10
2019-04-04T05:51:10.813Z,20.70
2019-04-04T05:52:10.806Z,21.40
2019-04-04T05:53:10.821Z,21.80
2019-04-04T05:54:10.837Z,26.40
2019-04-04T05:55:11.016Z,21.00
2019-04-04T05:56:10.871Z,20.40
2019-04-04T05:57:10.884Z,19.00
2019-04-04T05:58:10.903Z,20.50
2019-04-04T05:59:10.940Z,19.70
2019-04-04T06:00:10.932Z,19.20
2019-04-04T06:01:10.969Z,21.80
2019-04-04T06:02:11.552Z,17.40
2019-04-04T06:03:11.041Z,20.50
2019-04-04T06:04:10.994Z,20.00
2019-04-04T06:05:11.030Z,20.80
2019-04-04T06:06:11.034Z,17.90
2019-04-04T06:07:11.042Z,19.60
2019-04-04T06:08:11.055Z,19.10
2019-04-04T06:09:13.991Z,21.50
2019-04-04T06:10:12.181Z,20.20
2019-04-04T06:11:11.105Z,20.20
2019-04-04T06:12:11.126Z,19.00
2019-04-04T06:13:11.133Z,22.10
2019-04-04T06:14:11.152Z,20.30
2019-04-04T06:15:11.167Z,22.90
2019-04-04T06:16:11.181Z,21.30
2019-04-04T06:17:11.204Z,20.90
2019-04-04T06:18:12.041Z,24.00
2019-04-04T06:19:14.100Z,19.50
2019-04-04T06:20:13.025Z,23.20
2019-04-04T06:21:11.260Z,21.70
2019-04-04T06:22:11.675Z,22.30
2019-04-04T06:23:11.291Z,21.70
2019-04-04T06:24:11.304Z,21.50
2019-04-04T06:25:11.321Z,26.00
2019-04-04T06:26:11.366Z,24.80
2019-04-04T06:27:11.382Z,23.20
2019-04-04T06:28:12.023Z,20.20
2019-04-04T06:29:11.385Z,21.90
2019-04-04T06:30:11.401Z,25.50
2019-04-04T06:31:11.420Z,22.80
2019-04-04T06:32:11.438Z,20.70
2019-04-04T06:33:11.448Z,27.70
2019-04-04T06:34:11.464Z,26.40
2019-04-04T06:35:13.204Z,41.90
2019-04-04T06:36:11.492Z,41.00
2019-04-04T06:37:11.517Z,33.50
2019-04-04T06:38:11.525Z,25.10
2019-04-04T06:39:11.542Z,31.80
2019-04-04T06:40:11.556Z,27.70
2019-04-04T06:41:11.570Z,24.10
2019-04-04T06:42:11.594Z,23.40
2019-04-04T06:43:12.031Z,22.20
2019-04-04T06:44:13.114Z,22.80
2019-04-04T06:45:15.173Z,24.50
2019-04-04T06:46:11.651Z,21.10
2019-04-04T06:47:11.668Z,26.00
2019-04-04T06:48:11.690Z,24.70
2019-04-04T06:49:11.699Z,25.10
2019-04-04T06:50:11.736Z,24.10
2019-04-04T06:51:11.983Z,23.00
2019-04-04T06:52:11.746Z,21.70
2019-04-04T06:53:11.760Z,22.80
2019-04-04T06:54:11.782Z,20.50
2019-04-04T06:55:11.991Z,21.20
2019-04-04T06:56:11.806Z,20.60
2019-04-04T06:57:11.822Z,22.20
2019-04-04T06:58:11.844Z,21.90
2019-04-04T06:59:12.440Z,21.10
2019-04-04T07:00:15.414Z,19.10
2019-04-04T07:01:11.897Z,23.40
2019-04-04T07:02:11.904Z,20.40
2019-04-04T07:03:11.928Z,19.30
2019-04-04T07:04:11.932Z,21.90
2019-04-04T07:05:11.958Z,23.60
2019-04-04T07:06:11.966Z,21.50
2019-04-04T07:07:12.760Z,21.20
2019-04-04T07:08:14.801Z,22.30
2019-04-04T07:09:13.472Z,24.40
2019-04-04T07:10:12.032Z,22.80
2019-04-04T07:11:21.189Z,23.50
2019-04-04T07:12:22.257Z,27.80
2019-04-04T07:13:21.505Z,24.20
2019-04-04T07:14:12.098Z,23.50
2019-04-04T07:15:15.543Z,25.50
2019-04-04T07:16:12.121Z,29.30
2019-04-04T07:17:12.144Z,24.70
2019-04-04T07:18:12.882Z,24.70
2019-04-04T07:19:14.260Z,25.20
2019-04-04T07:20:12.185Z,26.90
2019-04-04T07:21:12.203Z,23.20
2019-04-04T07:22:12.216Z,25.90
2019-04-04T07:23:14.354Z,26.30
2019-04-04T07:24:12.249Z,27.20
2019-04-04T07:25:12.279Z,23.70
2019-04-04T07:26:14.791Z,25.20
2019-04-04T07:27:12.302Z,24.60
2019-04-04T07:28:12.315Z,23.50
2019-04-04T07:29:12.330Z,24.00
2019-04-04T07:30:15.286Z,23.40
2019-04-04T07:31:12.361Z,22.90
2019-04-04T07:32:12.381Z,21.70
2019-04-04T07:33:12.896Z,23.70
2019-04-04T07:34:13.727Z,26.10
2019-04-04T07:35:13.026Z,28.80
2019-04-04T07:36:12.439Z,24.30
2019-04-04T07:37:12.464Z,27.10
2019-04-04T07:38:12.471Z,24.10
2019-04-04T07:39:12.595Z,23.10
2019-04-04T07:40:12.506Z,23.10
2019-04-04T07:41:14.757Z,24.80
2019-04-04T07:42:15.478Z,26.00
2019-04-04T07:43:12.553Z,23.90
2019-04-04T07:44:12.569Z,24.60
2019-04-04T07:45:14.327Z,25.30
2019-04-04T07:46:16.689Z,29.50
2019-04-04T07:47:15.907Z,27.20
2019-04-04T07:48:12.633Z,25.10
2019-04-04T07:49:12.649Z,23.80
2019-04-04T07:50:12.664Z,25.10
2019-04-04T07:51:12.679Z,25.60
2019-04-04T07:52:12.697Z,24.90
2019-04-04T07:53:12.712Z,25.50
2019-04-04T07:54:12.727Z,28.30
2019-04-04T07:55:12.743Z,26.70
2019-04-04T07:56:14.224Z,21.50
2019-04-04T07:57:12.775Z,28.60
2019-04-04T07:58:12.889Z,28.40
2019-04-04T07:59:12.813Z,26.50
2019-04-04T08:00:12.830Z,25.30
2019-04-04T08:01:12.838Z,27.60
2019-04-04T08:02:12.855Z,29.30
2019-04-04T08:03:12.868Z,27.20
2019-04-04T08:04:12.884Z,28.40
2019-04-04T08:05:13.400Z,26.70
2019-04-04T08:06:12.917Z,29.90
2019-04-04T08:07:12.933Z,29.90
2019-04-04T08:08:12.952Z,27.00
2019-04-04T08:09:12.964Z,32.20
2019-04-04T08:10:20.517Z,28.80
2019-04-04T08:11:13.460Z,29.60
2019-04-04T08:12:13.011Z,30.60
2019-04-04T08:13:13.027Z,30.10
2019-04-04T08:14:13.041Z,28.80
2019-04-04T08:15:13.063Z,32.50
2019-04-04T08:16:13.075Z,34.50
2019-04-04T08:17:13.090Z,30.70
2019-04-04T08:18:13.106Z,30.20
2019-04-04T08:19:13.129Z,27.60
2019-04-04T08:20:13.133Z,29.90
2019-04-04T08:21:13.150Z,29.10
2019-04-04T08:22:13.315Z,30.80
2019-04-04T08:23:13.185Z,32.90
2019-04-04T08:24:13.203Z,31.30
2019-04-04T08:25:13.213Z,30.60
2019-04-04T08:26:13.231Z,27.70
2019-04-04T08:27:13.247Z,32.30
2019-04-04T08:28:13.262Z,27.00
2019-04-04T08:29:13.276Z,27.60
2019-04-04T08:30:13.291Z,26.30
2019-04-04T08:31:13.309Z,27.40
2019-04-04T08:32:13.340Z,26.70
2019-04-04T08:33:13.341Z,29.00
2019-04-04T08:34:13.354Z,28.00
2019-04-04T08:35:13.401Z,23.80
2019-04-04T08:36:13.387Z,26.10
2019-04-04T08:37:13.401Z,23.40
2019-04-04T08:38:13.421Z,25.30
2019-04-04T08:39:13.435Z,25.40
2019-04-04T08:40:13.451Z,22.00
2019-04-04T08:41:13.464Z,22.20
2019-04-04T08:42:13.494Z,25.60
2019-04-04T08:43:13.498Z,24.70
2019-04-04T08:44:13.509Z,20.80
2019-04-04T08:45:13.532Z,21.90
2019-04-04T08:46:13.542Z,21.20
2019-04-04T08:47:13.564Z,22.40
2019-04-04T08:48:13.573Z,23.40
2019-04-04T08:49:13.590Z,20.10
2019-04-04T08:50:13.606Z,22.70
2019-04-04T08:51:13.623Z,20.40
2019-04-04T08:52:16.819Z,20.90
2019-04-04T08:53:13.657Z,18.90
2019-04-04T08:54:13.666Z,20.40
2019-04-04T08:55:13.685Z,20.00
2019-04-04T08:56:13.704Z,20.30
2019-04-04T08:57:13.716Z,22.10
2019-04-04T08:58:13.736Z,21.50
2019-04-04T08:59:13.746Z,27.20
2019-04-04T09:00:13.764Z,22.90
2019-04-04T09:01:13.779Z,22.10
2019-04-04T09:02:13.798Z,18.60
2019-04-04T09:03:13.825Z,19.50
2019-04-04T09:04:13.830Z,18.40
2019-04-04T09:05:13.841Z,19.50
2019-04-04T09:06:13.861Z,20.80
2019-04-04T09:07:13.878Z,19.80
2019-04-04T09:08:13.889Z,19.90
2019-04-04T09:09:13.907Z,19.40
2019-04-04T09:10:13.927Z,17.10
2019-04-04T09:11:13.935Z,16.90
2019-04-04T09:12:13.952Z,19.60
2019-04-04T09:13:13.968Z,16.10
2019-04-04T09:14:13.984Z,16.60
2019-04-04T09:15:14.000Z,17.50
2019-04-04T09:16:14.045Z,15.50
2019-04-04T09:17:14.032Z,17.10
2019-04-04T09:18:14.050Z,19.20
2019-04-04T09:19:14.063Z,16.50
2019-04-04T09:20:14.077Z,19.10
2019-04-04T09:21:14.094Z,20.10
2019-04-04T09:22:14.115Z,17.60
2019-04-04T09:23:14.127Z,19.90
2019-04-04T09:24:14.149Z,16.50
2019-04-04T09:25:14.160Z,19.30
2019-04-04T09:26:14.175Z,18.60
2019-04-04T09:27:14.190Z,19.00
2019-04-04T09:28:14.204Z,17.70
2019-04-04T09:29:14.220Z,18.00
2019-04-04T09:30:14.239Z,16.40
2019-04-04T09:31:14.259Z,15.40
2019-04-04T09:32:14.271Z,16.40
2019-04-04T09:33:14.286Z,16.60
2019-04-04T09:34:14.300Z,16.60
2019-04-04T09:35:14.322Z,14.50
2019-04-04T09:36:14.334Z,14.70
2019-04-04T09:37:14.350Z,16.30
2019-04-04T09:38:14.369Z,15.20
2019-04-04T09:39:14.383Z,16.00
2019-04-04T09:40:14.398Z,17.00
2019-04-04T09:41:14.414Z,15.40
2019-04-04T09:42:14.432Z,16.00
2019-04-04T09:43:14.454Z,14.60
2019-04-04T09:44:14.466Z,16.90
2019-04-04T09:45:14.479Z,16.70
2019-04-04T09:46:14.499Z,15.80
2019-04-04T09:47:14.520Z,13.40
2019-04-04T09:48:14.524Z,12.90
2019-04-04T09:49:14.540Z,12.20
2019-04-04T09:50:14.560Z,15.10
2019-04-04T09:51:14.576Z,15.40
2019-04-04T09:52:14.593Z,14.90
2019-04-04T09:53:14.608Z,14.30
2019-04-04T09:54:14.625Z,15.90
2019-04-04T09:55:14.896Z,17.90
2019-04-04T09:56:14.655Z,17.20
2019-04-04T09:57:14.673Z,16.80
2019-04-04T09:58:14.688Z,11.60
2019-04-04T09:59:14.707Z,15.60
2019-04-04T10:00:14.722Z,13.70
2019-04-04T10:01:14.741Z,14.20
2019-04-04T10:02:14.765Z,12.70
2019-04-04T10:03:14.772Z,12.10
2019-04-04T10:04:14.785Z,16.50
2019-04-04T10:05:14.802Z,12.90
2019-04-04T10:06:14.821Z,12.60
2019-04-04T10:07:14.836Z,10.90
2019-04-04T10:08:14.851Z,12.60
2019-04-04T10:09:16.250Z,13.20
2019-04-04T10:10:14.892Z,11.70
2019-04-04T10:11:14.910Z,12.80
2019-04-04T10:12:14.934Z,14.70
2019-04-04T10:13:14.935Z,12.90
2019-04-04T10:14:15.091Z,12.10
2019-04-04T10:15:14.976Z,13.50
2019-04-04T10:16:15.042Z,13.30
2019-04-04T10:17:15.004Z,11.70
2019-04-04T10:18:15.117Z,12.00
2019-04-04T10:19:15.033Z,12.10
2019-04-04T10:20:15.051Z,10.80
2019-04-04T10:21:15.198Z,10.80
2019-04-04T10:22:15.081Z,11.30
2019-04-04T10:23:15.107Z,12.80
2019-04-04T10:24:15.114Z,9.30
2019-04-04T10:25:15.134Z,14.30
2019-04-04T10:26:15.147Z,10.10
2019-04-04T10:27:15.165Z,12.00
2019-04-04T10:28:15.179Z,12.60
2019-04-04T10:29:15.197Z,11.20
2019-04-04T10:30:15.215Z,14.10
2019-04-04T10:31:15.253Z,12.40
2019-04-04T10:32:15.249Z,12.80
2019-04-04T10:33:15.266Z,12.30
2019-04-04T10:34:15.289Z,12.10
2019-04-04T10:35:15.298Z,10.80
2019-04-04T10:36:15.314Z,14.40
2019-04-04T10:37:15.331Z,14.50
2019-04-04T10:38:15.350Z,12.40
2019-04-04T10:39:28.053Z,15.10
2019-04-04T10:40:15.382Z,11.90
2019-04-04T10:41:15.396Z,13.30
2019-04-04T10:42:15.411Z,14.60
2019-04-04T10:43:15.430Z,12.80
2019-04-04T10:44:15.451Z,17.30
2019-04-04T10:45:15.468Z,14.10
2019-04-04T10:46:15.478Z,12.90
2019-04-04T10:47:15.501Z,13.10
2019-04-04T10:48:15.511Z,11.80
2019-04-04T10:49:15.525Z,13.40
2019-04-04T10:50:15.542Z,11.90
2019-04-04T10:51:15.563Z,13.70
2019-04-04T10:52:15.578Z,17.00
2019-04-04T10:53:15.590Z,12.60
2019-04-04T10:54:15.612Z,14.80
2019-04-04T10:55:15.624Z,16.00
2019-04-04T10:56:15.649Z,16.00
2019-04-04T10:57:15.656Z,14.10
2019-04-04T10:58:15.678Z,16.50
2019-04-04T10:59:15.701Z,12.60
2019-04-04T11:00:15.705Z,14.90
2019-04-04T11:01:15.724Z,13.20
2019-04-04T11:02:15.741Z,13.80
2019-04-04T11:03:15.758Z,14.00
2019-04-04T11:04:15.770Z,14.50
2019-04-04T11:05:15.796Z,12.80
2019-04-04T11:06:15.804Z,13.10
2019-04-04T11:07:15.823Z,13.30
2019-04-04T11:08:15.840Z,13.90
2019-04-04T11:09:15.852Z,18.00
2019-04-04T11:10:15.877Z,13.60
2019-04-04T11:11:15.897Z,14.30
2019-04-04T11:12:15.901Z,14.00
2019-04-04T11:13:15.918Z,13.00
2019-04-04T11:14:15.937Z,13.90
2019-04-04T11:15:15.952Z,12.70
2019-04-04T11:16:15.977Z,13.80
2019-04-04T11:17:15.986Z,11.60
2019-04-04T11:18:16.151Z,13.80
2019-04-04T11:19:16.020Z,14.40
2019-04-04T11:20:16.036Z,13.40
2019-04-04T11:21:16.055Z,13.10
2019-04-04T11:22:16.069Z,13.70
2019-04-04T11:23:16.085Z,13.50
2019-04-04T11:24:16.100Z,12.70
2019-04-04T11:25:16.119Z,13.60
2019-04-04T11:26:16.143Z,12.40
2019-04-04T11:27:17.659Z,15.50
2019-04-04T11:28:16.171Z,14.70
2019-04-04T11:29:16.185Z,13.40
2019-04-04T11:30:16.202Z,13.40
2019-04-04T11:31:16.218Z,14.20
2019-04-04T11:32:16.235Z,12.30
2019-04-04T11:33:16.255Z,14.20
2019-04-04T11:34:16.267Z,13.30
2019-04-04T11:35:16.283Z,14.10
2019-04-04T11:36:16.302Z,12.70
2019-04-04T11:37:16.315Z,13.60
2019-04-04T11:38:16.331Z,11.90
2019-04-04T11:39:16.354Z,13.00
2019-04-04T11:40:16.374Z,11.50
2019-04-04T11:41:16.385Z,12.90
2019-04-04T11:42:16.401Z,13.50
2019-04-04T11:43:16.418Z,14.20
2019-04-04T11:44:16.434Z,14.00
2019-04-04T11:45:16.451Z,15.90
2019-04-04T11:46:16.467Z,15.60
2019-04-04T11:47:16.483Z,14.20
2019-04-04T11:48:16.498Z,15.90
2019-04-04T11:49:16.517Z,16.60
2019-04-04T11:50:16.534Z,16.20
2019-04-04T11:51:16.551Z,18.00
2019-04-04T11:52:16.651Z,18.50
2019-04-04T11:53:16.583Z,15.20
2019-04-04T11:54:16.597Z,15.90
2019-04-04T11:55:16.616Z,16.10
2019-04-04T11:56:16.763Z,16.20
2019-04-04T11:57:16.711Z,17.20
2019-04-04T11:58:16.735Z,14.90
2019-04-04T11:59:16.688Z,15.80
2019-04-04T12:00:16.725Z,14.80
2019-04-04T12:01:16.737Z,20.50
2019-04-04T12:02:16.747Z,17.70
2019-04-04T12:03:16.872Z,15.80
2019-04-04T12:04:16.760Z,17.70
2019-04-04T12:05:16.785Z,17.20
2019-04-04T12:06:16.793Z,15.70
2019-04-04T12:07:16.814Z,14.40
2019-04-04T12:08:16.826Z,17.50
2019-04-04T12:09:16.850Z,15.70
2019-04-04T12:10:16.869Z,17.90
2019-04-04T12:11:16.877Z,17.10
2019-04-04T12:12:16.897Z,16.20
2019-04-04T12:13:16.910Z,16.50
2019-04-04T12:14:17.076Z,16.70
2019-04-04T12:15:16.942Z,20.80
2019-04-04T12:16:17.308Z,17.40
2019-04-04T12:17:16.972Z,18.00
2019-04-04T12:18:16.990Z,15.10
2019-04-04T12:19:17.013Z,17.30
2019-04-04T12:20:17.022Z,18.70
2019-04-04T12:21:17.046Z,15.60
2019-04-04T12:22:17.060Z,15.10
2019-04-04T12:23:17.070Z,16.00
2019-04-04T12:24:17.092Z,16.20
2019-04-04T12:25:17.102Z,16.20
2019-04-04T12:26:17.127Z,15.50
2019-04-04T12:27:17.136Z,16.80
2019-04-04T12:28:17.155Z,16.40
2019-04-04T12:29:17.176Z,15.20
2019-04-04T12:30:17.184Z,15.10
2019-04-04T12:31:17.203Z,15.00
2019-04-04T12:32:17.300Z,16.50
2019-04-04T12:33:17.237Z,15.10
2019-04-04T12:34:17.256Z,19.50
2019-04-04T12:35:17.271Z,15.30
2019-04-04T12:36:24.408Z,18.20
2019-04-04T12:37:17.298Z,15.20
2019-04-04T12:38:17.317Z,16.20
2019-04-04T12:39:17.334Z,14.80
2019-04-04T12:40:20.954Z,15.80
2019-04-04T12:41:17.372Z,14.90
2019-04-04T12:42:17.380Z,13.90
2019-04-04T12:43:17.397Z,15.20
2019-04-04T12:44:17.411Z,15.10
2019-04-04T12:45:17.437Z,15.40
2019-04-04T12:46:17.446Z,13.70
2019-04-04T12:47:17.464Z,14.90
2019-04-04T12:48:17.496Z,15.40
2019-04-04T12:49:17.497Z,15.10
2019-04-04T12:50:17.510Z,13.40
2019-04-04T12:51:17.531Z,14.10
2019-04-04T12:52:17.543Z,13.00